createdAt,value
2023-03-22T00:02:14.125Z,29.50
2023-03-22T00:04:43.078Z,26.40
2023-03-22T00:07:09.947Z,28.40
2023-03-22T00:09:37.192Z,24.55
2023-03-22T00:12:04.465Z,30.30
2023-03-22T00:14:31.241Z,26.42
2023-03-22T00:16:58.388Z,30.17
2023-03-22T00:19:26.343Z,26.63
2023-03-22T00:21:53.490Z,23.55
2023-03-22T00:24:21.167Z,26.65
2023-03-22T00:26:48.339Z,26.38
2023-03-22T00:29:16.013Z,27.27
2023-03-22T00:31:43.228Z,27.90
2023-03-22T00:34:11.263Z,27.95
2023-03-22T00:36:38.242Z,24.13
2023-03-22T00:39:04.981Z,27.58
2023-03-22T00:41:32.189Z,28.00
2023-03-22T00:43:59.314Z,29.38
2023-03-22T00:46:26.796Z,29.30
2023-03-22T00:48:54.090Z,27.23
2023-03-22T00:51:21.374Z,27.48
2023-03-22T00:53:52.277Z,24.77
2023-03-22T00:56:19.978Z,26.50
2023-03-22T00:58:46.736Z,25.20
2023-03-22T01:01:13.732Z,24.67
2023-03-22T01:03:42.417Z,24.02
2023-03-22T01:06:09.997Z,24.65
2023-03-22T01:08:39.525Z,25.02
2023-03-22T01:11:07.917Z,24.73
2023-03-22T01:13:37.785Z,24.40
2023-03-22T01:16:06.589Z,23.10
2023-03-22T01:18:35.009Z,26.42
2023-03-22T01:21:02.206Z,25.25
2023-03-22T01:23:29.333Z,24.25
2023-03-22T01:25:56.077Z,24.55
2023-03-22T01:28:25.792Z,22.48
2023-03-22T01:30:54.595Z,24.08
2023-03-22T01:33:22.553Z,25.75
2023-03-22T01:35:49.357Z,26.02
2023-03-22T01:38:16.279Z,28.75
2023-03-22T01:40:43.473Z,24.13
2023-03-22T01:43:17.736Z,22.70
2023-03-22T01:45:47.875Z,24.70
2023-03-22T01:48:46.098Z,25.27
2023-03-22T01:51:18.508Z,24.75
2023-03-22T01:54:31.557Z,25.25
2023-03-22T01:56:59.121Z,22.92
2023-03-22T01:59:27.204Z,24.85
2023-03-22T02:01:54.636Z,23.77
2023-03-22T02:04:24.734Z,24.00
2023-03-22T02:06:56.129Z,23.73
2023-03-22T02:09:23.347Z,24.98
2023-03-22T02:11:59.459Z,22.00
2023-03-22T02:14:42.339Z,22.15
2023-03-22T02:17:42.222Z,24.90
2023-03-22T02:20:15.849Z,25.45
2023-03-22T02:23:14.678Z,26.15
2023-03-22T02:25:59.980Z,26.40
2023-03-22T02:28:45.849Z,23.02
2023-03-22T02:31:39.597Z,25.10
2023-03-22T02:34:18.821Z,24.45
2023-03-22T02:36:58.259Z,25.25
2023-03-22T02:40:13.565Z,26.02
2023-03-22T02:42:43.523Z,25.50
2023-03-22T02:45:22.873Z,22.85
2023-03-22T02:47:59.043Z,24.05
2023-03-22T02:50:38.206Z,24.17
2023-03-22T02:53:34.196Z,23.45
2023-03-22T02:56:23.884Z,25.67
2023-03-22T02:58:54.036Z,24.77
2023-03-22T03:01:36.658Z,28.65
2023-03-22T03:04:09.414Z,26.05
2023-03-22T03:06:41.243Z,23.85
2023-03-22T03:09:14.344Z,27.63
2023-03-22T03:11:41.084Z,25.70
2023-03-22T03:14:08.239Z,25.33
2023-03-22T03:16:37.074Z,24.30
2023-03-22T03:19:33.610Z,25.58
2023-03-22T03:22:04.266Z,25.35
2023-03-22T03:24:46.320Z,23.67
2023-03-22T03:27:49.868Z,25.75
2023-03-22T03:30:49.996Z,22.83
2023-03-22T03:33:20.629Z,22.80
2023-03-22T03:35:53.710Z,23.73
2023-03-22T03:38:26.371Z,23.50
2023-03-22T03:41:01.862Z,23.60
2023-03-22T03:43:29.078Z,20.35
2023-03-22T03:45:56.418Z,24.25
2023-03-22T03:48:31.975Z,22.08
2023-03-22T03:51:01.290Z,23.00
2023-03-22T03:53:28.600Z,24.08
2023-03-22T03:55:55.532Z,23.35
2023-03-22T03:58:22.362Z,22.48
2023-03-22T04:00:50.419Z,21.42
2023-03-22T04:03:17.194Z,23.55
2023-03-22T04:05:44.387Z,21.77
2023-03-22T04:08:11.801Z,22.13
2023-03-22T04:10:39.124Z,25.15
2023-03-22T04:13:06.196Z,25.80
2023-03-22T04:15:34.910Z,21.55
2023-03-22T04:18:01.736Z,24.42
2023-03-22T04:20:29.893Z,24.92
2023-03-22T04:22:58.091Z,24.77
2023-03-22T04:25:30.708Z,22.75
2023-03-22T04:27:57.501Z,22.70
2023-03-22T04:30:25.005Z,22.50
2023-03-22T04:32:51.740Z,24.35
2023-03-22T04:35:18.973Z,23.73
2023-03-22T04:37:45.816Z,24.25
2023-03-22T04:40:17.206Z,22.45
2023-03-22T04:42:45.945Z,24.55
2023-03-22T04:45:14.576Z,24.70
2023-03-22T04:47:41.648Z,25.40
2023-03-22T04:50:09.188Z,24.00
2023-03-22T04:52:36.372Z,21.23
2023-03-22T04:55:03.594Z,25.73
2023-03-22T04:57:30.291Z,22.95
2023-03-22T04:59:57.014Z,25.10
2023-03-22T05:02:24.241Z,25.15
2023-03-22T05:04:51.038Z,23.50
2023-03-22T05:07:18.356Z,24.67
2023-03-22T05:09:45.480Z,23.63
2023-03-22T05:12:12.341Z,27.10
2023-03-22T05:14:39.142Z,26.80
2023-03-22T05:17:05.911Z,27.17
2023-03-22T05:19:33.516Z,26.40
2023-03-22T05:22:02.449Z,25.20
2023-03-22T05:24:30.601Z,27.95
2023-03-22T05:27:01.460Z,26.50
2023-03-22T05:29:28.745Z,24.60
2023-03-22T05:31:55.769Z,25.35
2023-03-22T05:34:23.098Z,24.77
2023-03-22T05:36:51.582Z,24.70
2023-03-22T05:39:19.713Z,25.70
2023-03-22T05:41:46.990Z,25.20
2023-03-22T05:44:13.755Z,26.38
2023-03-22T05:46:41.312Z,28.15
2023-03-22T05:49:08.384Z,27.40
2023-03-22T05:51:42.065Z,24.27
2023-03-22T05:54:10.001Z,26.73
2023-03-22T05:56:36.949Z,26.50
2023-03-22T05:59:04.746Z,25.70
2023-03-22T06:01:33.387Z,25.45
2023-03-22T06:04:01.030Z,26.52
2023-03-22T06:06:28.487Z,23.38
2023-03-22T06:09:04.265Z,23.83
2023-03-22T06:11:42.663Z,24.58
2023-03-22T06:14:11.350Z,25.70
2023-03-22T06:16:39.230Z,22.05
2023-03-22T06:19:06.492Z,25.70
2023-03-22T06:21:33.425Z,22.65
2023-03-22T06:24:00.485Z,22.88
2023-03-22T06:26:28.595Z,27.13
2023-03-22T06:28:55.332Z,21.85
2023-03-22T06:31:22.716Z,22.45
2023-03-22T06:33:49.582Z,23.92
2023-03-22T06:36:16.677Z,23.52
2023-03-22T06:38:46.093Z,23.50
2023-03-22T06:41:13.331Z,24.17
2023-03-22T06:43:40.813Z,23.05
2023-03-22T06:46:07.562Z,20.83
2023-03-22T06:48:34.865Z,20.43
2023-03-22T06:51:01.655Z,20.97
2023-03-22T06:53:28.579Z,19.30
2023-03-22T06:55:55.612Z,20.47
2023-03-22T06:58:23.261Z,21.00
2023-03-22T07:00:50.453Z,19.93
2023-03-22T07:03:17.186Z,20.37
2023-03-22T07:05:45.159Z,18.67
2023-03-22T07:08:12.529Z,20.37
2023-03-22T07:10:39.548Z,19.27
2023-03-22T07:13:06.917Z,19.83
2023-03-22T07:15:34.796Z,18.73
2023-03-22T07:18:02.465Z,17.63
2023-03-22T07:20:29.269Z,20.53
2023-03-22T07:22:56.316Z,18.83
2023-03-22T07:25:24.980Z,18.70
2023-03-22T07:27:51.678Z,19.77
2023-03-22T07:30:18.801Z,19.00
2023-03-22T07:32:46.104Z,19.13
2023-03-22T07:35:12.848Z,18.20
2023-03-22T07:37:39.574Z,17.90
2023-03-22T07:40:07.140Z,18.80
2023-03-22T07:42:34.722Z,17.57
2023-03-22T07:45:01.653Z,20.30
2023-03-22T07:47:40.397Z,18.70
2023-03-22T07:50:08.672Z,20.53
2023-03-22T07:52:35.645Z,19.80
2023-03-22T07:55:02.390Z,19.67
2023-03-22T07:57:29.124Z,17.50
2023-03-22T07:59:57.115Z,17.57
2023-03-22T08:02:24.518Z,17.90
2023-03-22T08:04:55.772Z,18.13
2023-03-22T08:07:25.502Z,17.17
2023-03-22T08:09:52.277Z,18.00
2023-03-22T08:12:19.628Z,17.20
2023-03-22T08:14:50.448Z,19.50
2023-03-22T08:17:19.009Z,20.13
2023-03-22T08:19:46.496Z,19.20
2023-03-22T08:22:13.763Z,21.67
2023-03-22T08:24:40.896Z,21.23
2023-03-22T08:27:07.646Z,17.93
2023-03-22T08:29:35.126Z,22.90
2023-03-22T08:32:03.672Z,20.23
2023-03-22T08:34:31.752Z,20.63
2023-03-22T08:36:58.748Z,20.50
2023-03-22T08:39:26.224Z,23.20
2023-03-22T08:41:53.017Z,28.30
2023-03-22T08:44:19.783Z,20.77
2023-03-22T08:46:46.925Z,26.50
2023-03-22T08:49:14.985Z,18.50
2023-03-22T08:51:42.118Z,16.33
2023-03-22T08:54:08.932Z,16.07
2023-03-22T08:56:38.453Z,21.80
2023-03-22T08:59:07.019Z,17.70
2023-03-22T09:01:34.958Z,25.27
2023-03-22T09:04:03.044Z,14.53
2023-03-22T09:06:30.383Z,17.47
2023-03-22T09:08:57.617Z,17.60
2023-03-22T09:11:24.488Z,15.23
2023-03-22T09:13:51.872Z,14.17
2023-03-22T09:16:19.495Z,14.87
2023-03-22T09:18:46.256Z,14.33
2023-03-22T09:21:13.110Z,13.97
2023-03-22T09:23:40.297Z,14.47
2023-03-22T09:26:09.356Z,13.93
2023-03-22T09:28:37.006Z,13.67
2023-03-22T09:31:11.007Z,13.50
2023-03-22T09:33:41.372Z,12.90
2023-03-22T09:36:09.479Z,12.37
2023-03-22T09:38:38.362Z,11.13
2023-03-22T09:41:28.036Z,12.67
2023-03-22T09:43:59.498Z,13.10
2023-03-22T09:46:42.833Z,10.63
2023-03-22T09:49:52.621Z,9.73
2023-03-22T09:52:20.836Z,8.93
2023-03-22T09:54:48.151Z,8.40
2023-03-22T09:57:26.803Z,7.23
2023-03-22T09:59:53.856Z,6.80
2023-03-22T10:02:39.618Z,8.20
2023-03-22T10:05:37.207Z,11.60
2023-03-22T10:08:16.082Z,14.00
2023-03-22T10:10:43.243Z,11.33
2023-03-22T10:13:39.635Z,11.67
2023-03-22T10:16:12.740Z,10.57
2023-03-22T10:18:47.299Z,10.37
2023-03-22T10:21:17.549Z,10.03
2023-03-22T10:24:18.228Z,9.63
2023-03-22T10:26:50.002Z,10.63
2023-03-22T10:29:19.520Z,13.00
2023-03-22T10:31:46.685Z,9.20
2023-03-22T10:34:21.873Z,9.17
2023-03-22T10:36:51.896Z,11.17
2023-03-22T10:39:30.164Z,8.87
2023-03-22T10:42:00.424Z,8.83
2023-03-22T10:44:30.402Z,9.27
2023-03-22T10:47:07.190Z,9.57
2023-03-22T10:49:39.900Z,9.50
2023-03-22T10:52:22.023Z,9.97
2023-03-22T10:54:49.207Z,11.17
2023-03-22T10:57:15.931Z,13.43
2023-03-22T10:59:48.705Z,11.17
2023-03-22T11:02:22.817Z,11.73
2023-03-22T11:04:52.702Z,10.23
2023-03-22T11:07:34.835Z,10.50
2023-03-22T11:10:13.386Z,10.50
2023-03-22T11:12:46.510Z,10.70
2023-03-22T11:15:40.690Z,11.63
2023-03-22T11:18:13.162Z,12.57
2023-03-22T11:20:42.903Z,14.03
2023-03-22T11:23:18.489Z,11.50
2023-03-22T11:25:48.482Z,13.10
2023-03-22T11:28:29.032Z,11.60
2023-03-22T11:31:11.067Z,10.80
2023-03-22T11:33:44.685Z,12.37
2023-03-22T11:36:19.060Z,15.13
2023-03-22T11:38:47.375Z,14.10
2023-03-22T11:41:25.346Z,12.37
2023-03-22T11:44:02.297Z,14.20
2023-03-22T11:46:30.789Z,11.70
2023-03-22T11:49:01.819Z,11.83
2023-03-22T11:51:43.849Z,10.63
2023-03-22T11:54:34.361Z,10.80
2023-03-22T11:57:05.759Z,11.07
2023-03-22T11:59:44.991Z,11.90
2023-03-22T12:02:27.166Z,9.90
2023-03-22T12:05:02.336Z,11.27
2023-03-22T12:07:31.880Z,9.03
2023-03-22T12:10:08.004Z,9.00
2023-03-22T12:12:44.396Z,9.40
2023-03-22T12:15:22.305Z,8.33
2023-03-22T12:18:14.803Z,7.83
2023-03-22T12:20:58.651Z,7.83
2023-03-22T12:23:30.220Z,9.40
2023-03-22T12:26:02.299Z,9.80
2023-03-22T12:28:40.607Z,8.87
2023-03-22T12:31:19.589Z,9.43
2023-03-22T12:33:58.162Z,8.40
2023-03-22T12:36:42.247Z,8.70
2023-03-22T12:39:19.860Z,9.73
2023-03-22T12:41:50.867Z,8.40
2023-03-22T12:44:26.020Z,9.10
2023-03-22T12:47:05.654Z,6.93
2023-03-22T12:49:41.369Z,6.67
2023-03-22T12:52:46.172Z,5.83
2023-03-22T12:55:25.178Z,6.93
2023-03-22T12:57:54.560Z,7.70
2023-03-22T13:00:44.882Z,5.50
2023-03-22T13:03:17.906Z,5.50
2023-03-22T13:05:47.072Z,6.50
2023-03-22T13:08:20.450Z,5.53
2023-03-22T13:11:21.890Z,5.63
2023-03-22T13:13:48.917Z,6.17
2023-03-22T13:16:22.417Z,6.50
2023-03-22T13:18:52.634Z,5.97
2023-03-22T13:21:26.913Z,5.10
2023-03-22T13:24:02.892Z,6.30
2023-03-22T13:26:50.111Z,6.00
2023-03-22T13:29:19.256Z,5.20
2023-03-22T13:31:51.944Z,5.77
2023-03-22T13:34:21.529Z,5.83
2023-03-22T13:36:56.464Z,5.20
2023-03-22T13:39:28.691Z,6.47
2023-03-22T13:42:17.844Z,6.70
2023-03-22T13:44:46.894Z,9.80
2023-03-22T13:47:46.894Z,7.47
2023-03-22T13:50:18.804Z,6.47
2023-03-22T13:53:23.570Z,6.03
2023-03-22T13:55:51.493Z,6.60
2023-03-22T13:58:38.074Z,6.30
2023-03-22T14:01:13.154Z,6.27
2023-03-22T14:03:46.037Z,6.43
2023-03-22T14:06:31.819Z,5.80
2023-03-22T14:09:06.208Z,6.13
2023-03-22T14:11:49.162Z,5.80
2023-03-22T14:14:24.313Z,5.30
2023-03-22T14:16:58.778Z,5.90
2023-03-22T14:19:29.982Z,7.00
